sensor_id;sensor_type;location;lat;lon;timestamp;P1;durP1;ratioP1;P2;durP2;ratioP2
6928;SDS011;3504;52.616;13.238;2023-02-02T00:02:30;22.33;;;4.30;;
6928;SDS011;3504;52.616;13.238;2023-02-02T00:07:30;13.70;;;3.60;;
6928;SDS011;3504;52.616;13.238;2023-02-02T00:12:31;19.33;;;3.80;;
6928;SDS011;3504;52.616;13.238;2023-02-02T00:17:31;20.77;;;4.63;;
6928;SDS011;3504;52.616;13.238;2023-02-02T00:22:31;21.13;;;4.40;;
6928;SDS011;3504;52.616;13.238;2023-02-02T00:27:33;16.20;;;4.23;;
6928;SDS011;3504;52.616;13.238;2023-02-02T00:32:33;14.03;;;3.93;;
6928;SDS011;3504;52.616;13.238;2023-02-02T00:37:34;15.73;;;4.10;;
6928;SDS011;3504;52.616;13.238;2023-02-02T00:42:35;15.23;;;2.97;;
6928;SDS011;3504;52.616;13.238;2023-02-02T00:47:36;17.07;;;4.07;;
6928;SDS011;3504;52.616;13.238;2023-02-02T00:52:36;18.30;;;5.10;;
6928;SDS011;3504;52.616;13.238;2023-02-02T00:57:37;23.57;;;4.10;;
6928;SDS011;3504;52.616;13.238;2023-02-02T01:02:38;14.43;;;4.30;;
6928;SDS011;3504;52.616;13.238;2023-02-02T01:07:39;16.17;;;4.03;;
6928;SDS011;3504;52.616;13.238;2023-02-02T01:12:40;13.83;;;3.70;;
6928;SDS011;3504;52.616;13.238;2023-02-02T01:17:41;19.20;;;4.40;;
6928;SDS011;3504;52.616;13.238;2023-02-02T01:22:42;17.80;;;3.60;;
6928;SDS011;3504;52.616;13.238;2023-02-02T01:27:43;21.80;;;4.50;;
6928;SDS011;3504;52.616;13.238;2023-02-02T01:32:43;20.53;;;4.07;;
6928;SDS011;3504;52.616;13.238;2023-02-02T01:37:44;14.87;;;4.03;;
6928;SDS011;3504;52.616;13.238;2023-02-02T01:42:44;14.87;;;3.77;;
6928;SDS011;3504;52.616;13.238;2023-02-02T01:47:47;18.60;;;4.13;;
6928;SDS011;3504;52.616;13.238;2023-02-02T01:52:52;19.87;;;4.37;;
6928;SDS011;3504;52.616;13.238;2023-02-02T01:58:05;24.40;;;4.93;;
6928;SDS011;3504;52.616;13.238;2023-02-02T02:03:13;17.43;;;4.57;;
6928;SDS011;3504;52.616;13.238;2023-02-02T02:08:17;18.40;;;5.53;;
6928;SDS011;3504;52.616;13.238;2023-02-02T02:13:24;19.17;;;4.63;;
6928;SDS011;3504;52.616;13.238;2023-02-02T02:30:37;15.03;;;4.23;;
6928;SDS011;3504;52.616;13.238;2023-02-02T02:35:56;15.27;;;3.87;;
6928;SDS011;3504;52.616;13.238;2023-02-02T02:41:43;13.63;;;3.53;;
6928;SDS011;3504;52.616;13.238;2023-02-02T02:46:49;18.53;;;4.00;;
6928;SDS011;3504;52.616;13.238;2023-02-02T02:51:52;18.83;;;3.93;;
6928;SDS011;3504;52.616;13.238;2023-02-02T03:02:38;15.30;;;3.00;;
6928;SDS011;3504;52.616;13.238;2023-02-02T03:13:17;14.53;;;3.07;;
6928;SDS011;3504;52.616;13.238;2023-02-02T03:18:18;14.57;;;3.40;;
6928;SDS011;3504;52.616;13.238;2023-02-02T03:23:21;11.33;;;2.97;;
6928;SDS011;3504;52.616;13.238;2023-02-02T03:28:22;12.70;;;3.40;;
6928;SDS011;3504;52.616;13.238;2023-02-02T03:33:24;16.57;;;3.97;;
6928;SDS011;3504;52.616;13.238;2023-02-02T03:38:24;7.97;;;2.60;;
6928;SDS011;3504;52.616;13.238;2023-02-02T03:43:25;12.17;;;3.20;;
6928;SDS011;3504;52.616;13.238;2023-02-02T03:48:26;15.00;;;3.77;;
6928;SDS011;3504;52.616;13.238;2023-02-02T03:53:26;16.57;;;3.20;;
6928;SDS011;3504;52.616;13.238;2023-02-02T03:58:27;11.43;;;3.10;;
6928;SDS011;3504;52.616;13.238;2023-02-02T04:03:27;9.80;;;3.10;;
6928;SDS011;3504;52.616;13.238;2023-02-02T04:08:28;12.33;;;3.37;;
6928;SDS011;3504;52.616;13.238;2023-02-02T04:13:29;8.77;;;3.10;;
6928;SDS011;3504;52.616;13.238;2023-02-02T04:18:29;10.43;;;2.83;;
6928;SDS011;3504;52.616;13.238;2023-02-02T04:23:30;12.97;;;2.60;;
6928;SDS011;3504;52.616;13.238;2023-02-02T04:28:31;8.97;;;2.80;;
6928;SDS011;3504;52.616;13.238;2023-02-02T04:33:32;17.10;;;3.37;;
6928;SDS011;3504;52.616;13.238;2023-02-02T04:38:33;12.07;;;3.13;;
6928;SDS011;3504;52.616;13.238;2023-02-02T04:43:34;15.00;;;3.17;;
6928;SDS011;3504;52.616;13.238;2023-02-02T04:48:35;12.83;;;3.00;;
6928;SDS011;3504;52.616;13.238;2023-02-02T04:53:36;18.73;;;2.70;;
6928;SDS011;3504;52.616;13.238;2023-02-02T04:58:37;11.23;;;2.90;;
6928;SDS011;3504;52.616;13.238;2023-02-02T05:03:38;10.20;;;2.90;;
6928;SDS011;3504;52.616;13.238;2023-02-02T05:08:38;13.80;;;2.90;;
6928;SDS011;3504;52.616;13.238;2023-02-02T05:13:39;13.73;;;3.93;;
6928;SDS011;3504;52.616;13.238;2023-02-02T05:18:54;11.70;;;2.73;;
6928;SDS011;3504;52.616;13.238;2023-02-02T05:23:56;13.90;;;2.80;;
6928;SDS011;3504;52.616;13.238;2023-02-02T05:28:57;10.57;;;2.80;;
6928;SDS011;3504;52.616;13.238;2023-02-02T05:33:57;11.23;;;3.07;;
6928;SDS011;3504;52.616;13.238;2023-02-02T05:38:58;8.63;;;2.73;;
6928;SDS011;3504;52.616;13.238;2023-02-02T05:43:59;14.63;;;2.60;;
6928;SDS011;3504;52.616;13.238;2023-02-02T05:49:00;13.00;;;3.00;;
6928;SDS011;3504;52.616;13.238;2023-02-02T05:54:03;12.77;;;3.40;;
6928;SDS011;3504;52.616;13.238;2023-02-02T05:59:04;13.43;;;2.33;;
6928;SDS011;3504;52.616;13.238;2023-02-02T06:04:06;13.03;;;2.33;;
6928;SDS011;3504;52.616;13.238;2023-02-02T06:09:07;11.13;;;3.07;;
6928;SDS011;3504;52.616;13.238;2023-02-02T06:14:07;9.27;;;2.20;;
6928;SDS011;3504;52.616;13.238;2023-02-02T06:19:08;10.50;;;2.70;;
6928;SDS011;3504;52.616;13.238;2023-02-02T06:24:08;15.20;;;3.30;;
6928;SDS011;3504;52.616;13.238;2023-02-02T06:29:10;10.07;;;3.00;;
6928;SDS011;3504;52.616;13.238;2023-02-02T06:34:12;11.30;;;2.67;;
6928;SDS011;3504;52.616;13.238;2023-02-02T06:39:13;16.13;;;3.50;;
6928;SDS011;3504;52.616;13.238;2023-02-02T06:44:14;9.27;;;2.73;;
6928;SDS011;3504;52.616;13.238;2023-02-02T06:49:14;9.23;;;3.10;;
6928;SDS011;3504;52.616;13.238;2023-02-02T06:54:15;9.53;;;2.80;;
6928;SDS011;3504;52.616;13.238;2023-02-02T06:59:15;11.20;;;2.57;;
6928;SDS011;3504;52.616;13.238;2023-02-02T07:04:16;7.27;;;2.97;;
6928;SDS011;3504;52.616;13.238;2023-02-02T07:09:17;9.93;;;2.57;;
6928;SDS011;3504;52.616;13.238;2023-02-02T07:14:18;10.03;;;2.57;;
6928;SDS011;3504;52.616;13.238;2023-02-02T07:19:18;16.70;;;3.33;;
6928;SDS011;3504;52.616;13.238;2023-02-02T07:24:19;6.37;;;2.10;;
6928;SDS011;3504;52.616;13.238;2023-02-02T07:29:19;16.20;;;2.63;;
6928;SDS011;3504;52.616;13.238;2023-02-02T07:34:20;15.87;;;2.47;;
6928;SDS011;3504;52.616;13.238;2023-02-02T07:39:20;7.53;;;2.20;;
6928;SDS011;3504;52.616;13.238;2023-02-02T07:44:21;7.70;;;2.70;;
6928;SDS011;3504;52.616;13.238;2023-02-02T07:49:21;13.63;;;3.53;;
6928;SDS011;3504;52.616;13.238;2023-02-02T07:54:22;10.83;;;3.00;;
6928;SDS011;3504;52.616;13.238;2023-02-02T07:59:22;17.57;;;3.20;;
6928;SDS011;3504;52.616;13.238;2023-02-02T08:04:23;10.57;;;3.10;;
6928;SDS011;3504;52.616;13.238;2023-02-02T08:09:23;13.40;;;3.87;;
6928;SDS011;3504;52.616;13.238;2023-02-02T08:14:24;13.03;;;2.87;;
6928;SDS011;3504;52.616;13.238;2023-02-02T08:19:24;20.17;;;4.03;;
6928;SDS011;3504;52.616;13.238;2023-02-02T08:24:25;13.83;;;3.37;;
6928;SDS011;3504;52.616;13.238;2023-02-02T08:29:25;15.60;;;3.50;;
6928;SDS011;3504;52.616;13.238;2023-02-02T08:34:26;15.67;;;3.50;;
6928;SDS011;3504;52.616;13.238;2023-02-02T08:39:27;10.07;;;3.33;;
6928;SDS011;3504;52.616;13.238;2023-02-02T08:44:27;11.37;;;2.87;;
6928;SDS011;3504;52.616;13.238;2023-02-02T08:49:28;14.90;;;2.93;;
6928;SDS011;3504;52.616;13.238;2023-02-02T08:54:28;11.70;;;2.87;;
6928;SDS011;3504;52.616;13.238;2023-02-02T08:59:28;11.80;;;2.77;;
6928;SDS011;3504;52.616;13.238;2023-02-02T09:04:29;11.73;;;3.50;;
6928;SDS011;3504;52.616;13.238;2023-02-02T09:09:29;7.90;;;2.97;;
6928;SDS011;3504;52.616;13.238;2023-02-02T09:14:30;11.63;;;3.00;;
6928;SDS011;3504;52.616;13.238;2023-02-02T09:19:30;14.13;;;2.47;;
6928;SDS011;3504;52.616;13.238;2023-02-02T09:24:31;7.07;;;3.30;;
6928;SDS011;3504;52.616;13.238;2023-02-02T09:29:31;8.77;;;2.40;;
6928;SDS011;3504;52.616;13.238;2023-02-02T09:34:32;8.37;;;2.10;;
6928;SDS011;3504;52.616;13.238;2023-02-02T09:39:32;8.03;;;2.50;;
6928;SDS011;3504;52.616;13.238;2023-02-02T09:44:37;9.50;;;2.63;;
6928;SDS011;3504;52.616;13.238;2023-02-02T09:55:10;11.77;;;2.73;;
6928;SDS011;3504;52.616;13.238;2023-02-02T10:00:31;9.13;;;2.60;;
6928;SDS011;3504;52.616;13.238;2023-02-02T10:05:56;5.33;;;2.27;;
6928;SDS011;3504;52.616;13.238;2023-02-02T10:11:24;9.73;;;2.40;;
6928;SDS011;3504;52.616;13.238;2023-02-02T10:16:37;10.90;;;2.77;;
6928;SDS011;3504;52.616;13.238;2023-02-02T10:21:42;7.43;;;2.50;;
6928;SDS011;3504;52.616;13.238;2023-02-02T10:27:15;8.27;;;2.63;;
6928;SDS011;3504;52.616;13.238;2023-02-02T10:32:27;11.47;;;2.20;;
6928;SDS011;3504;52.616;13.238;2023-02-02T10:37:55;11.10;;;2.03;;
6928;SDS011;3504;52.616;13.238;2023-02-02T10:48:47;8.70;;;2.53;;
6928;SDS011;3504;52.616;13.238;2023-02-02T10:53:49;9.27;;;3.43;;
6928;SDS011;3504;52.616;13.238;2023-02-02T11:03:59;7.30;;;2.57;;
6928;SDS011;3504;52.616;13.238;2023-02-02T11:09:19;6.67;;;1.80;;
6928;SDS011;3504;52.616;13.238;2023-02-02T11:20:00;8.43;;;2.90;;
6928;SDS011;3504;52.616;13.238;2023-02-02T11:25:26;9.00;;;2.50;;
6928;SDS011;3504;52.616;13.238;2023-02-02T11:30:34;8.03;;;2.27;;
6928;SDS011;3504;52.616;13.238;2023-02-02T11:35:37;11.17;;;2.83;;
6928;SDS011;3504;52.616;13.238;2023-02-02T11:40:57;7.40;;;2.37;;
6928;SDS011;3504;52.616;13.238;2023-02-02T11:46:20;10.57;;;2.77;;
6928;SDS011;3504;52.616;13.238;2023-02-02T11:51:28;7.00;;;2.40;;
6928;SDS011;3504;52.616;13.238;2023-02-02T11:56:30;9.23;;;2.50;;
6928;SDS011;3504;52.616;13.238;2023-02-02T12:01:35;10.47;;;2.77;;
6928;SDS011;3504;52.616;13.238;2023-02-02T12:06:43;6.03;;;2.07;;
6928;SDS011;3504;52.616;13.238;2023-02-02T12:17:25;7.17;;;1.90;;
6928;SDS011;3504;52.616;13.238;2023-02-02T12:22:49;5.10;;;1.83;;
6928;SDS011;3504;52.616;13.238;2023-02-02T12:28:29;8.10;;;2.63;;
6928;SDS011;3504;52.616;13.238;2023-02-02T12:33:54;5.93;;;2.77;;
6928;SDS011;3504;52.616;13.238;2023-02-02T12:50:17;9.77;;;3.00;;
6928;SDS011;3504;52.616;13.238;2023-02-02T12:55:42;7.20;;;2.17;;
6928;SDS011;3504;52.616;13.238;2023-02-02T13:01:22;7.57;;;2.13;;
6928;SDS011;3504;52.616;13.238;2023-02-02T13:06:42;5.43;;;1.70;;
6928;SDS011;3504;52.616;13.238;2023-02-02T13:12:06;6.23;;;1.80;;
6928;SDS011;3504;52.616;13.238;2023-02-02T13:17:20;6.07;;;2.07;;
6928;SDS011;3504;52.616;13.238;2023-02-02T13:22:27;8.43;;;2.13;;
6928;SDS011;3504;52.616;13.238;2023-02-02T13:27:33;10.83;;;2.17;;
6928;SDS011;3504;52.616;13.238;2023-02-02T13:32:37;5.50;;;2.10;;
6928;SDS011;3504;52.616;13.238;2023-02-02T13:37:47;6.67;;;1.93;;
6928;SDS011;3504;52.616;13.238;2023-02-02T13:54:24;6.23;;;2.13;;
6928;SDS011;3504;52.616;13.238;2023-02-02T14:05:28;9.27;;;2.13;;
6928;SDS011;3504;52.616;13.238;2023-02-02T14:10:37;7.13;;;1.43;;
6928;SDS011;3504;52.616;13.238;2023-02-02T14:15:44;4.27;;;1.93;;
6928;SDS011;3504;52.616;13.238;2023-02-02T14:20:47;7.50;;;2.10;;
6928;SDS011;3504;52.616;13.238;2023-02-02T14:25:48;6.73;;;2.17;;
6928;SDS011;3504;52.616;13.238;2023-02-02T14:31:15;3.37;;;1.50;;
6928;SDS011;3504;52.616;13.238;2023-02-02T14:36:27;6.17;;;1.70;;
6928;SDS011;3504;52.616;13.238;2023-02-02T14:41:30;4.80;;;1.80;;
6928;SDS011;3504;52.616;13.238;2023-02-02T14:58:34;3.23;;;1.50;;
6928;SDS011;3504;52.616;13.238;2023-02-02T15:08:44;3.53;;;1.30;;
6928;SDS011;3504;52.616;13.238;2023-02-02T15:13:45;5.10;;;1.30;;
6928;SDS011;3504;52.616;13.238;2023-02-02T15:19:12;3.67;;;1.77;;
6928;SDS011;3504;52.616;13.238;2023-02-02T15:24:23;2.67;;;1.80;;
6928;SDS011;3504;52.616;13.238;2023-02-02T15:29:29;3.07;;;1.63;;
6928;SDS011;3504;52.616;13.238;2023-02-02T15:34:37;4.37;;;1.73;;
6928;SDS011;3504;52.616;13.238;2023-02-02T15:39:46;3.83;;;2.03;;
6928;SDS011;3504;52.616;13.238;2023-02-02T15:44:51;3.93;;;2.10;;
6928;SDS011;3504;52.616;13.238;2023-02-02T15:49:51;7.10;;;3.07;;
6928;SDS011;3504;52.616;13.238;2023-02-02T15:54:53;4.20;;;2.50;;
6928;SDS011;3504;52.616;13.238;2023-02-02T15:59:56;6.43;;;2.63;;
6928;SDS011;3504;52.616;13.238;2023-02-02T16:04:57;2.93;;;1.83;;
6928;SDS011;3504;52.616;13.238;2023-02-02T16:10:01;3.77;;;2.10;;
6928;SDS011;3504;52.616;13.238;2023-02-02T16:15:05;3.10;;;2.03;;
6928;SDS011;3504;52.616;13.238;2023-02-02T16:20:24;3.97;;;2.27;;
6928;SDS011;3504;52.616;13.238;2023-02-02T16:25:28;4.40;;;2.10;;
6928;SDS011;3504;52.616;13.238;2023-02-02T16:30:33;5.33;;;2.43;;
6928;SDS011;3504;52.616;13.238;2023-02-02T16:35:37;3.53;;;2.23;;
6928;SDS011;3504;52.616;13.238;2023-02-02T16:40:39;6.30;;;3.63;;
6928;SDS011;3504;52.616;13.238;2023-02-02T16:45:47;4.20;;;3.30;;
6928;SDS011;3504;52.616;13.238;2023-02-02T16:56:22;7.00;;;3.73;;
6928;SDS011;3504;52.616;13.238;2023-02-02T17:01:39;6.90;;;4.87;;
6928;SDS011;3504;52.616;13.238;2023-02-02T17:06:43;9.47;;;5.90;;
6928;SDS011;3504;52.616;13.238;2023-02-02T17:17:01;7.60;;;5.23;;
6928;SDS011;3504;52.616;13.238;2023-02-02T17:22:04;10.30;;;5.40;;
6928;SDS011;3504;52.616;13.238;2023-02-02T17:27:04;11.03;;;5.73;;
6928;SDS011;3504;52.616;13.238;2023-02-02T17:32:27;7.53;;;5.67;;
6928;SDS011;3504;52.616;13.238;2023-02-02T17:37:27;11.37;;;8.30;;
6928;SDS011;3504;52.616;13.238;2023-02-02T17:42:28;9.27;;;6.60;;
6928;SDS011;3504;52.616;13.238;2023-02-02T17:47:29;11.63;;;8.00;;
6928;SDS011;3504;52.616;13.238;2023-02-02T17:52:30;20.97;;;12.87;;
6928;SDS011;3504;52.616;13.238;2023-02-02T17:57:31;18.40;;;12.07;;
6928;SDS011;3504;52.616;13.238;2023-02-02T18:02:31;20.20;;;12.60;;
6928;SDS011;3504;52.616;13.238;2023-02-02T18:07:32;20.53;;;15.03;;
6928;SDS011;3504;52.616;13.238;2023-02-02T18:12:33;27.57;;;18.57;;
6928;SDS011;3504;52.616;13.238;2023-02-02T18:17:34;24.13;;;16.50;;
6928;SDS011;3504;52.616;13.238;2023-02-02T18:22:34;21.23;;;16.20;;
6928;SDS011;3504;52.616;13.238;2023-02-02T18:27:35;27.27;;;17.17;;
6928;SDS011;3504;52.616;13.238;2023-02-02T18:32:37;26.60;;;18.30;;
6928;SDS011;3504;52.616;13.238;2023-02-02T18:37:40;26.73;;;18.73;;
6928;SDS011;3504;52.616;13.238;2023-02-02T18:42:40;29.63;;;19.33;;
6928;SDS011;3504;52.616;13.238;2023-02-02T18:47:41;24.83;;;18.87;;
6928;SDS011;3504;52.616;13.238;2023-02-02T18:52:41;24.00;;;17.50;;
6928;SDS011;3504;52.616;13.238;2023-02-02T18:57:42;22.43;;;16.47;;
6928;SDS011;3504;52.616;13.238;2023-02-02T19:02:42;23.57;;;17.30;;
6928;SDS011;3504;52.616;13.238;2023-02-02T19:07:43;21.00;;;16.37;;
6928;SDS011;3504;52.616;13.238;2023-02-02T19:18:14;24.30;;;17.07;;
6928;SDS011;3504;52.616;13.238;2023-02-02T19:23:24;21.37;;;16.47;;
6928;SDS011;3504;52.616;13.238;2023-02-02T19:28:29;20.83;;;16.50;;
6928;SDS011;3504;52.616;13.238;2023-02-02T19:38:40;18.47;;;14.37;;
6928;SDS011;3504;52.616;13.238;2023-02-02T19:43:41;15.90;;;12.07;;
6928;SDS011;3504;52.616;13.238;2023-02-02T19:48:46;14.23;;;11.67;;
6928;SDS011;3504;52.616;13.238;2023-02-02T19:53:48;17.27;;;13.50;;
6928;SDS011;3504;52.616;13.238;2023-02-02T19:58:48;17.93;;;13.00;;
6928;SDS011;3504;52.616;13.238;2023-02-02T20:03:49;17.73;;;12.37;;
6928;SDS011;3504;52.616;13.238;2023-02-02T20:08:51;19.13;;;14.53;;
6928;SDS011;3504;52.616;13.238;2023-02-02T20:13:52;17.80;;;13.00;;
6928;SDS011;3504;52.616;13.238;2023-02-02T20:18:53;13.23;;;10.73;;
6928;SDS011;3504;52.616;13.238;2023-02-02T20:23:55;14.87;;;10.87;;
6928;SDS011;3504;52.616;13.238;2023-02-02T20:28:57;12.33;;;10.00;;
6928;SDS011;3504;52.616;13.238;2023-02-02T20:33:59;18.00;;;11.80;;
6928;SDS011;3504;52.616;13.238;2023-02-02T20:39:12;26.73;;;16.77;;
6928;SDS011;3504;52.616;13.238;2023-02-02T20:44:31;20.27;;;14.37;;
6928;SDS011;3504;52.616;13.238;2023-02-02T20:49:33;25.33;;;16.83;;
6928;SDS011;3504;52.616;13.238;2023-02-02T20:54:36;21.23;;;13.93;;
6928;SDS011;3504;52.616;13.238;2023-02-02T20:59:38;21.63;;;12.87;;
6928;SDS011;3504;52.616;13.238;2023-02-02T21:04:38;17.60;;;11.40;;
6928;SDS011;3504;52.616;13.238;2023-02-02T21:09:46;13.97;;;10.63;;
6928;SDS011;3504;52.616;13.238;2023-02-02T21:14:48;10.73;;;8.20;;
6928;SDS011;3504;52.616;13.238;2023-02-02T21:19:49;13.20;;;9.00;;
6928;SDS011;3504;52.616;13.238;2023-02-02T21:24:49;12.73;;;8.53;;
6928;SDS011;3504;52.616;13.238;2023-02-02T21:29:50;13.10;;;9.33;;
6928;SDS011;3504;52.616;13.238;2023-02-02T21:34:50;14.03;;;7.97;;
6928;SDS011;3504;52.616;13.238;2023-02-02T21:39:51;10.30;;;7.40;;
6928;SDS011;3504;52.616;13.238;2023-02-02T21:44:57;11.67;;;8.97;;
6928;SDS011;3504;52.616;13.238;2023-02-02T21:50:25;10.93;;;8.00;;
6928;SDS011;3504;52.616;13.238;2023-02-02T21:55:34;11.40;;;8.47;;
6928;SDS011;3504;52.616;13.238;2023-02-02T22:00:37;11.17;;;7.53;;
6928;SDS011;3504;52.616;13.238;2023-02-02T22:05:37;9.53;;;6.50;;
6928;SDS011;3504;52.616;13.238;2023-02-02T22:10:38;13.23;;;7.53;;
6928;SDS011;3504;52.616;13.238;2023-02-02T22:15:41;12.53;;;7.63;;
6928;SDS011;3504;52.616;13.238;2023-02-02T22:20:46;13.03;;;8.20;;
6928;SDS011;3504;52.616;13.238;2023-02-02T22:25:51;15.47;;;8.73;;
6928;SDS011;3504;52.616;13.238;2023-02-02T22:30:54;15.00;;;9.27;;
6928;SDS011;3504;52.616;13.238;2023-02-02T22:35:55;13.37;;;8.47;;
6928;SDS011;3504;52.616;13.238;2023-02-02T22:40:56;13.03;;;7.10;;
6928;SDS011;3504;52.616;13.238;2023-02-02T22:45:56;14.17;;;7.57;;
6928;SDS011;3504;52.616;13.238;2023-02-02T22:50:57;10.83;;;7.30;;
6928;SDS011;3504;52.616;13.238;2023-02-02T22:55:57;12.50;;;6.80;;
6928;SDS011;3504;52.616;13.238;2023-02-02T23:00:58;11.43;;;6.77;;
6928;SDS011;3504;52.616;13.238;2023-02-02T23:05:58;14.73;;;6.67;;
6928;SDS011;3504;52.616;13.238;2023-02-02T23:10:59;9.20;;;6.47;;
6928;SDS011;3504;52.616;13.238;2023-02-02T23:16:00;11.67;;;7.23;;
6928;SDS011;3504;52.616;13.238;2023-02-02T23:21:00;10.83;;;8.00;;
6928;SDS011;3504;52.616;13.238;2023-02-02T23:26:01;10.60;;;7.47;;
6928;SDS011;3504;52.616;13.238;2023-02-02T23:31:01;13.43;;;6.83;;
6928;SDS011;3504;52.616;13.238;2023-02-02T23:36:02;14.20;;;6.57;;
6928;SDS011;3504;52.616;13.238;2023-02-02T23:41:02;11.83;;;6.13;;
6928;SDS011;3504;52.616;13.238;2023-02-02T23:46:03;12.67;;;6.70;;
6928;SDS011;3504;52.616;13.238;2023-02-02T23:51:03;10.00;;;5.37;;
6928;SDS011;3504;52.616;13.238;2023-02-02T23:56:04;10.80;;;5.37;;
